sensor_id;sensor_type;location;lat;lon;timestamp;temperature;humidity
7958;DHT22;4024;52.172;5.378;2022-08-06T00:02:06;17.10;99.90
7958;DHT22;4024;52.172;5.378;2022-08-06T00:04:32;17.10;99.90
7958;DHT22;4024;52.172;5.378;2022-08-06T00:06:57;17.10;99.90
7958;DHT22;4024;52.172;5.378;2022-08-06T00:09:23;17.00;99.90
7958;DHT22;4024;52.172;5.378;2022-08-06T00:11:49;17.00;99.90
7958;DHT22;4024;52.172;5.378;2022-08-06T00:14:15;16.90;99.90
7958;DHT22;4024;52.172;5.378;2022-08-06T00:16:40;16.90;99.90
7958;DHT22;4024;52.172;5.378;2022-08-06T00:19:06;16.90;99.90
7958;DHT22;4024;52.172;5.378;2022-08-06T00:21:32;16.90;99.90
7958;DHT22;4024;52.172;5.378;2022-08-06T00:23:58;16.90;99.90
7958;DHT22;4024;52.172;5.378;2022-08-06T00:26:24;16.90;99.90
7958;DHT22;4024;52.172;5.378;2022-08-06T00:28:50;16.80;99.90
7958;DHT22;4024;52.172;5.378;2022-08-06T00:31:15;16.80;99.90
7958;DHT22;4024;52.172;5.378;2022-08-06T00:33:41;16.80;99.90
7958;DHT22;4024;52.172;5.378;2022-08-06T00:36:08;16.80;99.90
7958;DHT22;4024;52.172;5.378;2022-08-06T00:38:34;16.70;99.90
7958;DHT22;4024;52.172;5.378;2022-08-06T00:41:01;16.80;99.90
7958;DHT22;4024;52.172;5.378;2022-08-06T00:43:27;16.70;99.90
7958;DHT22;4024;52.172;5.378;2022-08-06T00:45:53;16.80;99.90
7958;DHT22;4024;52.172;5.378;2022-08-06T00:48:19;16.70;99.90
7958;DHT22;4024;52.172;5.378;2022-08-06T00:50:45;16.70;99.90
7958;DHT22;4024;52.172;5.378;2022-08-06T00:53:10;16.70;99.90
7958;DHT22;4024;52.172;5.378;2022-08-06T00:55:36;16.70;99.90
7958;DHT22;4024;52.172;5.378;2022-08-06T00:58:03;16.60;99.90
7958;DHT22;4024;52.172;5.378;2022-08-06T01:00:29;16.60;99.90
7958;DHT22;4024;52.172;5.378;2022-08-06T01:02:55;16.60;99.90
7958;DHT22;4024;52.172;5.378;2022-08-06T01:05:20;16.60;99.90
7958;DHT22;4024;52.172;5.378;2022-08-06T01:07:46;16.60;99.90
7958;DHT22;4024;52.172;5.378;2022-08-06T01:10:12;16.60;99.90
7958;DHT22;4024;52.172;5.378;2022-08-06T01:12:38;16.50;99.90
7958;DHT22;4024;52.172;5.378;2022-08-06T01:15:04;16.50;99.90
7958;DHT22;4024;52.172;5.378;2022-08-06T01:17:41;16.50;99.90
7958;DHT22;4024;52.172;5.378;2022-08-06T01:20:20;16.40;99.90
7958;DHT22;4024;52.172;5.378;2022-08-06T01:28:28;16.40;99.90
7958;DHT22;4024;52.172;5.378;2022-08-06T01:31:02;16.30;99.90
7958;DHT22;4024;52.172;5.378;2022-08-06T01:33:40;16.30;99.90
7958;DHT22;4024;52.172;5.378;2022-08-06T01:36:11;16.30;99.90
7958;DHT22;4024;52.172;5.378;2022-08-06T01:38:42;16.30;99.90
7958;DHT22;4024;52.172;5.378;2022-08-06T01:41:10;16.20;99.90
7958;DHT22;4024;52.172;5.378;2022-08-06T01:43:39;16.20;99.90
7958;DHT22;4024;52.172;5.378;2022-08-06T01:46:08;16.20;99.90
7958;DHT22;4024;52.172;5.378;2022-08-06T01:48:36;16.20;99.90
7958;DHT22;4024;52.172;5.378;2022-08-06T01:51:04;16.20;99.90
7958;DHT22;4024;52.172;5.378;2022-08-06T01:53:35;16.10;99.90
7958;DHT22;4024;52.172;5.378;2022-08-06T01:56:03;16.10;99.90
7958;DHT22;4024;52.172;5.378;2022-08-06T01:58:41;16.10;99.90
7958;DHT22;4024;52.172;5.378;2022-08-06T02:01:10;16.10;99.90
7958;DHT22;4024;52.172;5.378;2022-08-06T02:03:45;16.00;99.90
7958;DHT22;4024;52.172;5.378;2022-08-06T02:06:23;16.00;99.90
7958;DHT22;4024;52.172;5.378;2022-08-06T02:08:51;16.00;99.90
7958;DHT22;4024;52.172;5.378;2022-08-06T02:11:18;16.00;99.90
7958;DHT22;4024;52.172;5.378;2022-08-06T02:13:45;15.90;99.90
7958;DHT22;4024;52.172;5.378;2022-08-06T02:16:12;15.90;99.90
7958;DHT22;4024;52.172;5.378;2022-08-06T02:18:42;15.90;99.90
7958;DHT22;4024;52.172;5.378;2022-08-06T02:21:12;15.90;99.90
7958;DHT22;4024;52.172;5.378;2022-08-06T02:23:41;15.90;99.90
7958;DHT22;4024;52.172;5.378;2022-08-06T02:26:08;15.90;99.90
7958;DHT22;4024;52.172;5.378;2022-08-06T02:28:36;15.90;99.90
7958;DHT22;4024;52.172;5.378;2022-08-06T02:31:03;15.80;99.90
7958;DHT22;4024;52.172;5.378;2022-08-06T02:33:29;15.80;99.90
7958;DHT22;4024;52.172;5.378;2022-08-06T02:39:13;15.80;99.90
7958;DHT22;4024;52.172;5.378;2022-08-06T02:44:48;15.80;99.90
7958;DHT22;4024;52.172;5.378;2022-08-06T02:47:29;15.80;99.90
7958;DHT22;4024;52.172;5.378;2022-08-06T02:49:59;15.70;99.90
7958;DHT22;4024;52.172;5.378;2022-08-06T02:52:37;15.70;99.90
7958;DHT22;4024;52.172;5.378;2022-08-06T02:55:14;15.70;99.90
7958;DHT22;4024;52.172;5.378;2022-08-06T02:57:45;15.70;99.90
7958;DHT22;4024;52.172;5.378;2022-08-06T03:00:13;15.70;99.90
7958;DHT22;4024;52.172;5.378;2022-08-06T03:02:39;15.60;99.90
7958;DHT22;4024;52.172;5.378;2022-08-06T03:05:10;15.60;99.90
7958;DHT22;4024;52.172;5.378;2022-08-06T03:07:39;15.60;99.90
7958;DHT22;4024;52.172;5.378;2022-08-06T03:10:07;15.60;99.90
7958;DHT22;4024;52.172;5.378;2022-08-06T03:12:35;15.60;99.90
7958;DHT22;4024;52.172;5.378;2022-08-06T03:15:02;15.60;99.90
7958;DHT22;4024;52.172;5.378;2022-08-06T03:17:29;15.60;99.90
7958;DHT22;4024;52.172;5.378;2022-08-06T03:19:57;15.50;99.90
7958;DHT22;4024;52.172;5.378;2022-08-06T03:22:25;15.50;99.90
7958;DHT22;4024;52.172;5.378;2022-08-06T03:24:53;15.50;99.90
7958;DHT22;4024;52.172;5.378;2022-08-06T03:27:20;15.50;99.90
7958;DHT22;4024;52.172;5.378;2022-08-06T03:29:48;15.50;99.90
7958;DHT22;4024;52.172;5.378;2022-08-06T03:32:14;15.50;99.90
7958;DHT22;4024;52.172;5.378;2022-08-06T03:34:42;15.50;99.90
7958;DHT22;4024;52.172;5.378;2022-08-06T03:37:09;15.40;99.90
7958;DHT22;4024;52.172;5.378;2022-08-06T03:39:37;15.40;99.90
7958;DHT22;4024;52.172;5.378;2022-08-06T03:42:05;15.40;99.90
7958;DHT22;4024;52.172;5.378;2022-08-06T03:44:31;15.40;99.90
7958;DHT22;4024;52.172;5.378;2022-08-06T03:47:22;15.40;99.90
7958;DHT22;4024;52.172;5.378;2022-08-06T03:49:58;15.40;99.90
7958;DHT22;4024;52.172;5.378;2022-08-06T03:52:28;15.40;99.90
7958;DHT22;4024;52.172;5.378;2022-08-06T03:54:58;15.40;99.90
7958;DHT22;4024;52.172;5.378;2022-08-06T03:57:34;15.40;99.90
7958;DHT22;4024;52.172;5.378;2022-08-06T04:00:02;15.40;99.90
7958;DHT22;4024;52.172;5.378;2022-08-06T04:02:35;15.30;99.90
7958;DHT22;4024;52.172;5.378;2022-08-06T04:05:02;15.30;99.90
7958;DHT22;4024;52.172;5.378;2022-08-06T04:07:30;15.30;99.90
7958;DHT22;4024;52.172;5.378;2022-08-06T04:09:56;15.30;99.90
7958;DHT22;4024;52.172;5.378;2022-08-06T04:12:23;15.30;99.90
7958;DHT22;4024;52.172;5.378;2022-08-06T04:14:49;15.30;99.90
7958;DHT22;4024;52.172;5.378;2022-08-06T04:17:16;15.30;99.90
7958;DHT22;4024;52.172;5.378;2022-08-06T04:19:44;15.30;99.90
7958;DHT22;4024;52.172;5.378;2022-08-06T04:22:10;15.20;99.90
7958;DHT22;4024;52.172;5.378;2022-08-06T04:24:36;15.20;99.90
7958;DHT22;4024;52.172;5.378;2022-08-06T04:27:04;15.20;99.90
7958;DHT22;4024;52.172;5.378;2022-08-06T04:29:33;15.20;99.90
7958;DHT22;4024;52.172;5.378;2022-08-06T04:31:59;15.20;99.90
7958;DHT22;4024;52.172;5.378;2022-08-06T04:34:27;15.10;99.90
7958;DHT22;4024;52.172;5.378;2022-08-06T04:36:58;15.20;99.90
7958;DHT22;4024;52.172;5.378;2022-08-06T04:39:25;15.20;99.90
7958;DHT22;4024;52.172;5.378;2022-08-06T04:41:52;15.20;99.90
7958;DHT22;4024;52.172;5.378;2022-08-06T04:44:18;15.20;99.90
7958;DHT22;4024;52.172;5.378;2022-08-06T04:46:44;15.20;99.90
7958;DHT22;4024;52.172;5.378;2022-08-06T04:49:14;15.20;99.90
7958;DHT22;4024;52.172;5.378;2022-08-06T04:51:47;15.20;99.90
7958;DHT22;4024;52.172;5.378;2022-08-06T04:54:14;15.20;99.90
7958;DHT22;4024;52.172;5.378;2022-08-06T04:56:41;15.20;99.90
7958;DHT22;4024;52.172;5.378;2022-08-06T04:59:07;15.30;99.90
7958;DHT22;4024;52.172;5.378;2022-08-06T05:01:34;15.30;99.90
7958;DHT22;4024;52.172;5.378;2022-08-06T05:04:00;15.30;99.90
7958;DHT22;4024;52.172;5.378;2022-08-06T05:06:40;15.30;99.90
7958;DHT22;4024;52.172;5.378;2022-08-06T05:09:13;15.30;99.90
7958;DHT22;4024;52.172;5.378;2022-08-06T05:11:50;15.30;99.90
7958;DHT22;4024;52.172;5.378;2022-08-06T05:14:22;15.30;99.90
7958;DHT22;4024;52.172;5.378;2022-08-06T05:16:51;15.40;99.90
7958;DHT22;4024;52.172;5.378;2022-08-06T05:19:28;15.30;99.90
7958;DHT22;4024;52.172;5.378;2022-08-06T05:21:57;15.40;99.90
7958;DHT22;4024;52.172;5.378;2022-08-06T05:24:24;15.40;99.90
7958;DHT22;4024;52.172;5.378;2022-08-06T05:26:52;15.40;99.90
7958;DHT22;4024;52.172;5.378;2022-08-06T05:29:19;15.50;99.90
7958;DHT22;4024;52.172;5.378;2022-08-06T05:31:46;15.50;99.90
7958;DHT22;4024;52.172;5.378;2022-08-06T05:34:12;15.60;99.90
7958;DHT22;4024;52.172;5.378;2022-08-06T05:36:38;15.60;99.90
7958;DHT22;4024;52.172;5.378;2022-08-06T05:39:05;15.90;99.90
7958;DHT22;4024;52.172;5.378;2022-08-06T05:41:31;16.20;99.90
7958;DHT22;4024;52.172;5.378;2022-08-06T05:44:01;16.60;99.90
7958;DHT22;4024;52.172;5.378;2022-08-06T05:46:31;17.00;99.90
7958;DHT22;4024;52.172;5.378;2022-08-06T05:49:05;17.30;99.90
7958;DHT22;4024;52.172;5.378;2022-08-06T05:51:49;17.60;99.90
7958;DHT22;4024;52.172;5.378;2022-08-06T05:54:35;17.80;99.90
7958;DHT22;4024;52.172;5.378;2022-08-06T05:57:11;17.90;99.90
7958;DHT22;4024;52.172;5.378;2022-08-06T05:59:41;18.00;99.90
7958;DHT22;4024;52.172;5.378;2022-08-06T06:02:10;18.10;99.90
7958;DHT22;4024;52.172;5.378;2022-08-06T06:04:37;18.10;99.90
7958;DHT22;4024;52.172;5.378;2022-08-06T06:07:03;18.10;99.90
7958;DHT22;4024;52.172;5.378;2022-08-06T06:09:29;18.00;99.90
7958;DHT22;4024;52.172;5.378;2022-08-06T06:11:57;18.00;99.90
7958;DHT22;4024;52.172;5.378;2022-08-06T06:14:40;18.00;99.90
7958;DHT22;4024;52.172;5.378;2022-08-06T06:20:32;18.00;99.90
7958;DHT22;4024;52.172;5.378;2022-08-06T06:28:28;18.00;99.90
7958;DHT22;4024;52.172;5.378;2022-08-06T06:34:11;18.00;99.90
7958;DHT22;4024;52.172;5.378;2022-08-06T06:36:57;18.00;99.90
7958;DHT22;4024;52.172;5.378;2022-08-06T06:39:41;18.00;99.90
7958;DHT22;4024;52.172;5.378;2022-08-06T06:42:24;18.00;99.90
7958;DHT22;4024;52.172;5.378;2022-08-06T06:50:41;18.10;99.90
7958;DHT22;4024;52.172;5.378;2022-08-06T06:53:09;18.10;99.90
7958;DHT22;4024;52.172;5.378;2022-08-06T06:55:38;18.20;99.90
7958;DHT22;4024;52.172;5.378;2022-08-06T06:58:20;18.20;99.90
7958;DHT22;4024;52.172;5.378;2022-08-06T07:00:46;18.20;99.90
7958;DHT22;4024;52.172;5.378;2022-08-06T07:03:13;18.30;99.90
7958;DHT22;4024;52.172;5.378;2022-08-06T07:05:41;18.30;99.90
7958;DHT22;4024;52.172;5.378;2022-08-06T07:08:11;18.40;99.90
7958;DHT22;4024;52.172;5.378;2022-08-06T07:10:39;18.40;99.90
7958;DHT22;4024;52.172;5.378;2022-08-06T07:13:07;18.40;99.90
7958;DHT22;4024;52.172;5.378;2022-08-06T07:15:35;18.50;99.90
7958;DHT22;4024;52.172;5.378;2022-08-06T07:18:02;18.50;99.90
7958;DHT22;4024;52.172;5.378;2022-08-06T07:20:33;18.50;99.90
7958;DHT22;4024;52.172;5.378;2022-08-06T07:23:07;18.60;99.90
7958;DHT22;4024;52.172;5.378;2022-08-06T07:25:37;18.70;99.90
7958;DHT22;4024;52.172;5.378;2022-08-06T07:28:05;18.70;99.90
7958;DHT22;4024;52.172;5.378;2022-08-06T07:30:32;18.70;99.90
7958;DHT22;4024;52.172;5.378;2022-08-06T07:33:02;18.80;99.90
7958;DHT22;4024;52.172;5.378;2022-08-06T07:35:29;18.80;99.90
7958;DHT22;4024;52.172;5.378;2022-08-06T07:38:03;18.90;99.90
7958;DHT22;4024;52.172;5.378;2022-08-06T07:40:36;18.90;99.90
7958;DHT22;4024;52.172;5.378;2022-08-06T07:43:24;19.00;99.90
7958;DHT22;4024;52.172;5.378;2022-08-06T07:45:51;19.00;99.90
7958;DHT22;4024;52.172;5.378;2022-08-06T07:48:22;19.10;99.90
7958;DHT22;4024;52.172;5.378;2022-08-06T07:50:50;19.20;99.90
7958;DHT22;4024;52.172;5.378;2022-08-06T07:53:18;19.30;99.90
7958;DHT22;4024;52.172;5.378;2022-08-06T07:55:45;19.30;99.90
7958;DHT22;4024;52.172;5.378;2022-08-06T07:58:12;19.40;99.90
7958;DHT22;4024;52.172;5.378;2022-08-06T08:00:41;19.40;99.90
7958;DHT22;4024;52.172;5.378;2022-08-06T08:03:09;19.40;99.90
7958;DHT22;4024;52.172;5.378;2022-08-06T08:05:55;19.50;99.90
7958;DHT22;4024;52.172;5.378;2022-08-06T08:08:39;19.60;99.90
7958;DHT22;4024;52.172;5.378;2022-08-06T08:11:07;19.70;99.90
7958;DHT22;4024;52.172;5.378;2022-08-06T08:13:38;19.70;99.90
7958;DHT22;4024;52.172;5.378;2022-08-06T08:16:05;19.70;99.90
7958;DHT22;4024;52.172;5.378;2022-08-06T08:18:32;19.80;99.90
7958;DHT22;4024;52.172;5.378;2022-08-06T08:20:59;19.80;99.90
7958;DHT22;4024;52.172;5.378;2022-08-06T08:23:26;19.90;99.90
7958;DHT22;4024;52.172;5.378;2022-08-06T08:25:55;19.90;99.90
7958;DHT22;4024;52.172;5.378;2022-08-06T08:28:22;19.90;99.90
7958;DHT22;4024;52.172;5.378;2022-08-06T08:30:48;19.90;99.90
7958;DHT22;4024;52.172;5.378;2022-08-06T08:33:14;19.90;99.90
7958;DHT22;4024;52.172;5.378;2022-08-06T08:35:41;19.90;99.90
7958;DHT22;4024;52.172;5.378;2022-08-06T08:38:07;20.00;99.90
7958;DHT22;4024;52.172;5.378;2022-08-06T08:40:34;20.00;99.90
7958;DHT22;4024;52.172;5.378;2022-08-06T08:43:01;20.00;99.90
7958;DHT22;4024;52.172;5.378;2022-08-06T08:45:28;20.10;99.90
7958;DHT22;4024;52.172;5.378;2022-08-06T08:47:57;20.20;99.90
7958;DHT22;4024;52.172;5.378;2022-08-06T08:50:27;20.30;99.90
7958;DHT22;4024;52.172;5.378;2022-08-06T08:53:03;20.40;99.90
7958;DHT22;4024;52.172;5.378;2022-08-06T08:55:31;20.40;99.90
7958;DHT22;4024;52.172;5.378;2022-08-06T08:57:58;20.50;99.90
7958;DHT22;4024;52.172;5.378;2022-08-06T09:00:24;20.50;99.90
7958;DHT22;4024;52.172;5.378;2022-08-06T09:02:50;20.60;99.90
7958;DHT22;4024;52.172;5.378;2022-08-06T09:05:23;20.60;99.90
7958;DHT22;4024;52.172;5.378;2022-08-06T09:07:50;20.70;99.90
7958;DHT22;4024;52.172;5.378;2022-08-06T09:10:16;20.80;99.90
7958;DHT22;4024;52.172;5.378;2022-08-06T09:12:42;20.80;99.90
7958;DHT22;4024;52.172;5.378;2022-08-06T09:15:09;20.90;99.90
7958;DHT22;4024;52.172;5.378;2022-08-06T09:17:35;21.00;99.90
7958;DHT22;4024;52.172;5.378;2022-08-06T09:20:03;21.00;99.90
7958;DHT22;4024;52.172;5.378;2022-08-06T09:22:29;21.10;99.90
7958;DHT22;4024;52.172;5.378;2022-08-06T09:24:55;21.20;99.90
7958;DHT22;4024;52.172;5.378;2022-08-06T09:27:21;21.20;99.90
7958;DHT22;4024;52.172;5.378;2022-08-06T09:32:48;21.40;99.90
7958;DHT22;4024;52.172;5.378;2022-08-06T09:35:25;21.40;99.90
7958;DHT22;4024;52.172;5.378;2022-08-06T09:38:01;21.40;99.90
7958;DHT22;4024;52.172;5.378;2022-08-06T09:40:27;21.40;99.90
7958;DHT22;4024;52.172;5.378;2022-08-06T09:42:53;21.40;99.90
7958;DHT22;4024;52.172;5.378;2022-08-06T09:45:20;21.40;99.90
7958;DHT22;4024;52.172;5.378;2022-08-06T09:47:48;21.30;99.90
7958;DHT22;4024;52.172;5.378;2022-08-06T09:50:14;21.40;99.90
7958;DHT22;4024;52.172;5.378;2022-08-06T09:52:55;21.30;99.90
7958;DHT22;4024;52.172;5.378;2022-08-06T09:55:30;21.30;99.90
7958;DHT22;4024;52.172;5.378;2022-08-06T09:57:56;21.40;99.90
7958;DHT22;4024;52.172;5.378;2022-08-06T10:00:27;21.40;99.90
7958;DHT22;4024;52.172;5.378;2022-08-06T10:03:01;21.50;99.90
7958;DHT22;4024;52.172;5.378;2022-08-06T10:05:30;21.50;99.90
7958;DHT22;4024;52.172;5.378;2022-08-06T10:08:10;21.70;99.90
7958;DHT22;4024;52.172;5.378;2022-08-06T10:10:47;21.70;99.90
7958;DHT22;4024;52.172;5.378;2022-08-06T10:13:31;21.70;99.90
7958;DHT22;4024;52.172;5.378;2022-08-06T10:16:01;21.80;99.90
7958;DHT22;4024;52.172;5.378;2022-08-06T10:18:41;21.90;99.90
7958;DHT22;4024;52.172;5.378;2022-08-06T10:21:10;22.00;99.50
7958;DHT22;4024;52.172;5.378;2022-08-06T10:23:38;22.10;98.80
7958;DHT22;4024;52.172;5.378;2022-08-06T10:26:08;22.10;99.30
7958;DHT22;4024;52.172;5.378;2022-08-06T10:28:35;22.20;98.50
7958;DHT22;4024;52.172;5.378;2022-08-06T10:31:09;22.30;99.70
7958;DHT22;4024;52.172;5.378;2022-08-06T10:33:41;22.40;99.70
7958;DHT22;4024;52.172;5.378;2022-08-06T10:36:12;22.50;99.50
7958;DHT22;4024;52.172;5.378;2022-08-06T10:38:42;22.60;99.10
7958;DHT22;4024;52.172;5.378;2022-08-06T10:41:10;22.70;99.30
7958;DHT22;4024;52.172;5.378;2022-08-06T10:43:38;22.80;99.70
7958;DHT22;4024;52.172;5.378;2022-08-06T10:46:06;22.90;99.40
7958;DHT22;4024;52.172;5.378;2022-08-06T10:48:34;23.00;98.40
7958;DHT22;4024;52.172;5.378;2022-08-06T10:51:02;23.10;97.90
7958;DHT22;4024;52.172;5.378;2022-08-06T10:53:29;23.10;96.70
7958;DHT22;4024;52.172;5.378;2022-08-06T10:55:56;23.20;96.00
7958;DHT22;4024;52.172;5.378;2022-08-06T10:58:22;23.30;95.70
7958;DHT22;4024;52.172;5.378;2022-08-06T11:00:49;23.30;94.90
7958;DHT22;4024;52.172;5.378;2022-08-06T11:12:15;23.50;94.30
7958;DHT22;4024;52.172;5.378;2022-08-06T11:14:44;23.50;94.40
7958;DHT22;4024;52.172;5.378;2022-08-06T11:17:10;23.60;94.00
7958;DHT22;4024;52.172;5.378;2022-08-06T11:19:42;23.60;94.30
7958;DHT22;4024;52.172;5.378;2022-08-06T11:22:32;23.60;94.60
7958;DHT22;4024;52.172;5.378;2022-08-06T11:24:58;23.70;94.50
7958;DHT22;4024;52.172;5.378;2022-08-06T11:27:49;23.70;94.30
7958;DHT22;4024;52.172;5.378;2022-08-06T11:30:16;23.70;94.10
7958;DHT22;4024;52.172;5.378;2022-08-06T11:32:48;23.80;94.90
7958;DHT22;4024;52.172;5.378;2022-08-06T11:35:38;23.80;92.90
7958;DHT22;4024;52.172;5.378;2022-08-06T11:38:07;23.80;93.80
7958;DHT22;4024;52.172;5.378;2022-08-06T11:40:52;23.90;93.60
7958;DHT22;4024;52.172;5.378;2022-08-06T11:46:36;23.90;92.80
7958;DHT22;4024;52.172;5.378;2022-08-06T11:51:51;24.00;93.20
7958;DHT22;4024;52.172;5.378;2022-08-06T11:54:28;24.00;94.20
7958;DHT22;4024;52.172;5.378;2022-08-06T11:59:29;24.10;95.70
7958;DHT22;4024;52.172;5.378;2022-08-06T12:01:56;24.10;96.10
7958;DHT22;4024;52.172;5.378;2022-08-06T12:04:41;24.00;95.40
7958;DHT22;4024;52.172;5.378;2022-08-06T12:07:30;24.00;95.40
7958;DHT22;4024;52.172;5.378;2022-08-06T12:12:44;24.10;94.90
7958;DHT22;4024;52.172;5.378;2022-08-06T12:20:36;24.20;94.00
7958;DHT22;4024;52.172;5.378;2022-08-06T12:23:05;24.20;93.70
7958;DHT22;4024;52.172;5.378;2022-08-06T12:25:43;24.20;94.00
7958;DHT22;4024;52.172;5.378;2022-08-06T12:28:11;24.30;94.40
7958;DHT22;4024;52.172;5.378;2022-08-06T12:33:14;24.50;94.10
7958;DHT22;4024;52.172;5.378;2022-08-06T12:35:58;24.60;94.30
7958;DHT22;4024;52.172;5.378;2022-08-06T12:38:26;24.60;94.60
7958;DHT22;4024;52.172;5.378;2022-08-06T12:41:02;24.80;94.60
7958;DHT22;4024;52.172;5.378;2022-08-06T12:43:30;24.80;94.60
7958;DHT22;4024;52.172;5.378;2022-08-06T12:45:59;24.80;94.20
7958;DHT22;4024;52.172;5.378;2022-08-06T12:48:25;24.80;93.70
7958;DHT22;4024;52.172;5.378;2022-08-06T12:51:07;24.80;93.30
7958;DHT22;4024;52.172;5.378;2022-08-06T12:53:55;24.80;93.40
7958;DHT22;4024;52.172;5.378;2022-08-06T12:56:23;24.80;93.70
7958;DHT22;4024;52.172;5.378;2022-08-06T12:58:51;24.80;93.50
7958;DHT22;4024;52.172;5.378;2022-08-06T13:01:19;24.90;92.90
7958;DHT22;4024;52.172;5.378;2022-08-06T13:03:47;24.90;93.00
7958;DHT22;4024;52.172;5.378;2022-08-06T13:06:16;25.00;93.10
7958;DHT22;4024;52.172;5.378;2022-08-06T13:08:46;24.90;92.80
7958;DHT22;4024;52.172;5.378;2022-08-06T13:11:13;25.00;92.20
7958;DHT22;4024;52.172;5.378;2022-08-06T13:13:50;25.10;91.70
7958;DHT22;4024;52.172;5.378;2022-08-06T13:16:17;25.00;91.50
7958;DHT22;4024;52.172;5.378;2022-08-06T13:19:04;25.00;90.10
7958;DHT22;4024;52.172;5.378;2022-08-06T13:21:30;25.00;90.60
7958;DHT22;4024;52.172;5.378;2022-08-06T13:23:56;25.00;90.50
7958;DHT22;4024;52.172;5.378;2022-08-06T13:26:25;24.90;90.20
7958;DHT22;4024;52.172;5.378;2022-08-06T13:32:01;24.80;90.20
7958;DHT22;4024;52.172;5.378;2022-08-06T13:34:26;24.70;88.90
7958;DHT22;4024;52.172;5.378;2022-08-06T13:36:55;24.70;87.80
7958;DHT22;4024;52.172;5.378;2022-08-06T13:39:30;24.70;88.30
7958;DHT22;4024;52.172;5.378;2022-08-06T13:42:10;24.70;88.30
7958;DHT22;4024;52.172;5.378;2022-08-06T13:44:42;24.70;88.60
7958;DHT22;4024;52.172;5.378;2022-08-06T13:47:09;24.70;88.80
7958;DHT22;4024;52.172;5.378;2022-08-06T13:49:38;24.70;86.90
7958;DHT22;4024;52.172;5.378;2022-08-06T13:52:03;24.70;86.90
7958;DHT22;4024;52.172;5.378;2022-08-06T13:54:29;24.80;88.70
7958;DHT22;4024;52.172;5.378;2022-08-06T13:56:56;24.80;88.20
7958;DHT22;4024;52.172;5.378;2022-08-06T13:59:25;24.80;87.70
7958;DHT22;4024;52.172;5.378;2022-08-06T14:01:52;24.80;88.30
7958;DHT22;4024;52.172;5.378;2022-08-06T14:04:19;24.80;90.20
7958;DHT22;4024;52.172;5.378;2022-08-06T14:06:48;24.80;89.20
7958;DHT22;4024;52.172;5.378;2022-08-06T14:09:15;24.80;88.00
7958;DHT22;4024;52.172;5.378;2022-08-06T14:11:42;24.80;88.30
7958;DHT22;4024;52.172;5.378;2022-08-06T14:14:08;24.90;88.80
7958;DHT22;4024;52.172;5.378;2022-08-06T14:16:34;24.90;88.40
7958;DHT22;4024;52.172;5.378;2022-08-06T14:18:59;25.00;89.20
7958;DHT22;4024;52.172;5.378;2022-08-06T14:21:25;25.00;88.30
7958;DHT22;4024;52.172;5.378;2022-08-06T14:23:51;25.10;88.30
7958;DHT22;4024;52.172;5.378;2022-08-06T14:26:17;25.10;87.90
7958;DHT22;4024;52.172;5.378;2022-08-06T14:28:42;25.10;85.10
7958;DHT22;4024;52.172;5.378;2022-08-06T14:31:08;25.20;86.00
7958;DHT22;4024;52.172;5.378;2022-08-06T14:33:34;25.30;84.60
7958;DHT22;4024;52.172;5.378;2022-08-06T14:36:00;25.30;83.60
7958;DHT22;4024;52.172;5.378;2022-08-06T14:38:26;25.40;85.60
7958;DHT22;4024;52.172;5.378;2022-08-06T14:40:51;25.40;85.50
7958;DHT22;4024;52.172;5.378;2022-08-06T14:43:36;25.50;85.70
7958;DHT22;4024;52.172;5.378;2022-08-06T14:46:20;25.50;85.40
7958;DHT22;4024;52.172;5.378;2022-08-06T14:48:46;25.60;84.30
7958;DHT22;4024;52.172;5.378;2022-08-06T14:51:13;25.60;84.80
7958;DHT22;4024;52.172;5.378;2022-08-06T14:53:38;25.60;82.60
7958;DHT22;4024;52.172;5.378;2022-08-06T14:56:04;25.60;82.90
7958;DHT22;4024;52.172;5.378;2022-08-06T14:58:30;25.60;83.00
7958;DHT22;4024;52.172;5.378;2022-08-06T15:00:56;25.60;84.30
7958;DHT22;4024;52.172;5.378;2022-08-06T15:03:22;25.60;83.10
7958;DHT22;4024;52.172;5.378;2022-08-06T15:05:47;25.60;82.70
7958;DHT22;4024;52.172;5.378;2022-08-06T15:08:14;25.60;81.70
7958;DHT22;4024;52.172;5.378;2022-08-06T15:10:39;25.60;82.60
7958;DHT22;4024;52.172;5.378;2022-08-06T15:13:06;25.60;82.90
7958;DHT22;4024;52.172;5.378;2022-08-06T15:15:32;25.60;83.10
7958;DHT22;4024;52.172;5.378;2022-08-06T15:17:58;25.60;84.20
7958;DHT22;4024;52.172;5.378;2022-08-06T15:20:24;25.60;83.60
7958;DHT22;4024;52.172;5.378;2022-08-06T15:22:49;25.50;83.70
7958;DHT22;4024;52.172;5.378;2022-08-06T15:25:15;25.50;84.20
7958;DHT22;4024;52.172;5.378;2022-08-06T15:27:44;25.40;84.10
7958;DHT22;4024;52.172;5.378;2022-08-06T15:30:11;25.40;83.60
7958;DHT22;4024;52.172;5.378;2022-08-06T15:32:37;25.40;83.90
7958;DHT22;4024;52.172;5.378;2022-08-06T15:35:03;25.30;84.20
7958;DHT22;4024;52.172;5.378;2022-08-06T15:37:29;25.30;85.00
7958;DHT22;4024;52.172;5.378;2022-08-06T15:39:54;25.20;85.10
7958;DHT22;4024;52.172;5.378;2022-08-06T15:42:21;25.10;85.00
7958;DHT22;4024;52.172;5.378;2022-08-06T15:44:46;25.10;86.10
7958;DHT22;4024;52.172;5.378;2022-08-06T15:47:13;25.00;85.70
7958;DHT22;4024;52.172;5.378;2022-08-06T15:49:38;25.00;85.30
7958;DHT22;4024;52.172;5.378;2022-08-06T15:52:04;25.00;86.10
7958;DHT22;4024;52.172;5.378;2022-08-06T15:54:30;25.00;87.20
7958;DHT22;4024;52.172;5.378;2022-08-06T15:56:55;25.00;87.00
7958;DHT22;4024;52.172;5.378;2022-08-06T15:59:21;24.90;87.60
7958;DHT22;4024;52.172;5.378;2022-08-06T16:01:47;24.90;87.80
7958;DHT22;4024;52.172;5.378;2022-08-06T16:04:13;24.90;88.40
7958;DHT22;4024;52.172;5.378;2022-08-06T16:06:39;24.90;87.60
7958;DHT22;4024;52.172;5.378;2022-08-06T16:09:05;24.80;88.90
7958;DHT22;4024;52.172;5.378;2022-08-06T16:11:30;24.80;89.20
7958;DHT22;4024;52.172;5.378;2022-08-06T16:13:56;24.80;90.20
7958;DHT22;4024;52.172;5.378;2022-08-06T16:16:22;24.80;90.10
7958;DHT22;4024;52.172;5.378;2022-08-06T16:18:48;24.80;90.30
7958;DHT22;4024;52.172;5.378;2022-08-06T16:21:14;24.80;90.90
7958;DHT22;4024;52.172;5.378;2022-08-06T16:23:39;24.70;91.30
7958;DHT22;4024;52.172;5.378;2022-08-06T16:26:05;24.60;91.40
7958;DHT22;4024;52.172;5.378;2022-08-06T16:28:31;24.60;91.40
7958;DHT22;4024;52.172;5.378;2022-08-06T16:30:56;24.50;91.10
7958;DHT22;4024;52.172;5.378;2022-08-06T16:33:22;24.40;91.40
7958;DHT22;4024;52.172;5.378;2022-08-06T16:35:49;24.40;91.90
7958;DHT22;4024;52.172;5.378;2022-08-06T16:38:16;24.40;92.60
7958;DHT22;4024;52.172;5.378;2022-08-06T16:40:42;24.30;92.50
7958;DHT22;4024;52.172;5.378;2022-08-06T16:43:07;24.20;92.80
7958;DHT22;4024;52.172;5.378;2022-08-06T16:45:33;24.20;93.10
7958;DHT22;4024;52.172;5.378;2022-08-06T16:47:59;24.10;93.20
7958;DHT22;4024;52.172;5.378;2022-08-06T16:50:24;24.00;92.90
7958;DHT22;4024;52.172;5.378;2022-08-06T16:52:51;24.00;93.20
7958;DHT22;4024;52.172;5.378;2022-08-06T16:55:16;23.90;93.40
7958;DHT22;4024;52.172;5.378;2022-08-06T16:57:42;23.90;93.70
7958;DHT22;4024;52.172;5.378;2022-08-06T17:00:09;23.80;93.60
7958;DHT22;4024;52.172;5.378;2022-08-06T17:02:42;23.80;93.90
7958;DHT22;4024;52.172;5.378;2022-08-06T17:05:13;23.80;94.10
7958;DHT22;4024;52.172;5.378;2022-08-06T17:07:40;23.80;94.00
7958;DHT22;4024;52.172;5.378;2022-08-06T17:10:13;23.80;94.20
7958;DHT22;4024;52.172;5.378;2022-08-06T17:12:44;23.80;94.00
7958;DHT22;4024;52.172;5.378;2022-08-06T17:15:11;23.80;94.20
7958;DHT22;4024;52.172;5.378;2022-08-06T17:17:38;23.80;94.60
7958;DHT22;4024;52.172;5.378;2022-08-06T17:20:04;23.80;94.30